Farm — LBHF — position and weather

sailwx.info

Track history (hours):
 
Tides and Currents Weather Stations Pressure Air Temp Water Temp Dewpoint Dewpoint Depression Visibility Wind Speed Wind Dir Waves Ship Positions

Farm

Last reported at 2015-May-27 15:19 UTC. Time now 2015-May-27 18:02 UTC.
Position N 69°33' E 018°45'.

Length 46 m; draft 4 m.

Type: Law enforcement. MMSI: 257069200.

Date/timePositionNaut miles runAvg speedWind from/ knotsBaromVisibWave heightAir tempDewpointWater temp
2015-May-27 15:19N 69°33' E 018°45'3 3.5
2015-May-27 14:28N 69°34' E 018°53'1 0.7
2015-May-27 12:27N 69°36' E 018°54'1 1.5
2015-May-27 11:32N 69°37' E 018°55'3 1.9
2015-May-27 10:09N 69°39' E 018°58'0 0.0
2015-May-27 09:28N 69°39' E 018°58'0 0.2
2015-May-27 08:33N 69°39' E 018°58'0 0.1
2015-May-27 07:33N 69°39' E 018°58'1 1.2
2015-May-27 06:33N 69°41' E 018°59'3 2.4
2015-May-27 05:27N 69°43' E 019°01'0 0.1
2015-May-27 03:15N 69°43' E 019°01'0 0.1
2015-May-27 02:26N 69°43' E 019°02'0 0.1
2015-May-27 01:32N 69°43' E 019°02'0 0.1
2015-May-27 00:33N 69°43' E 019°02'1 1.1
2015-May-26 23:33N 69°42' E 019°03'2 2.5
2015-May-26 22:33N 69°40' E 018°59'1 0.8
2015-May-26 21:33N 69°41' E 019°01'  
2015-May-20 17:22N 69°46' E 019°09'7 8.1
2015-May-20 16:33N 69°40' E 019°00'0 0.5
2015-May-20 15:33N 69°41' E 018°59'0 0.0
2015-May-20 14:31N 69°41' E 018°59'0 0.0
2015-May-20 13:31N 69°41' E 018°59'2 1.9
2015-May-20 12:25N 69°42' E 019°03'0 0.0
2015-May-20 06:33N 69°43' E 019°03'2 2.3
2015-May-20 05:31N 69°41' E 018°59'0 0.0
2015-May-20 04:28N 69°41' E 018°59'0 0.0
2015-May-20 03:28N 69°41' E 018°59'0 0.0
2015-May-20 02:28N 69°41' E 018°59'0 0.0
2015-May-20 01:22N 69°41' E 018°59'0 0.0
2015-May-20 00:28N 69°41' E 018°59'0 0.0
2015-May-19 23:31N 69°41' E 018°59'0 0.0
2015-May-19 22:25N 69°41' E 018°59'0 0.0
2015-May-19 21:28N 69°41' E 018°59'0 0.0
2015-May-19 20:28N 69°41' E 018°59'0 0.0
2015-May-19 19:10N 69°41' E 018°59'0 0.0
2015-May-19 18:28N 69°41' E 018°59'0 0.0
2015-May-19 17:31N 69°41' E 018°59'0 0.0
2015-May-19 16:31N 69°41' E 018°59'0 0.0
2015-May-19 15:31N 69°41' E 018°59'0 0.0
2015-May-19 14:22N 69°41' E 018°59'0 0.0
2015-May-19 13:16N 69°41' E 018°59'0 0.0
2015-May-19 12:28N 69°41' E 018°59'0 0.0
2015-May-19 11:31N 69°41' E 018°59'0 0.0
2015-May-19 10:16N 69°41' E 018°59'0 0.0
2015-May-19 09:28N 69°41' E 018°59'0 0.0
2015-May-19 08:31N 69°41' E 018°59'0 0.0
2015-May-19 07:25N 69°41' E 018°59'0 0.0
2015-May-19 06:31N 69°41' E 018°59'0 0.0
2015-May-19 05:25N 69°41' E 018°59'2 2.4
2015-May-19 04:32N 69°42' E 019°02'  
Track history (hours):
 
Tides and Currents Weather Stations Pressure Air Temp Water Temp Dewpoint Dewpoint Depression Visibility Wind Speed Wind Dir Waves Ship Positions

Farm

Last reported at 2015-May-27 15:19 UTC. Time now 2015-May-27 18:02 UTC.
Position N 69°33' E 018°45'.

Length 46 m; draft 4 m.

Type: Law enforcement. MMSI: 257069200.

Date/timePositionNaut miles runAvg speedWind from/ knotsBaromVisibWave heightAir tempDewpointWater temp
2015-May-27 15:19N 69°33' E 018°45'3 3.5
2015-May-27 14:28N 69°34' E 018°53'1 0.7
2015-May-27 12:27N 69°36' E 018°54'1 1.5
2015-May-27 11:32N 69°37' E 018°55'3 1.9
2015-May-27 10:09N 69°39' E 018°58'0 0.0
2015-May-27 09:28N 69°39' E 018°58'0 0.2
2015-May-27 08:33N 69°39' E 018°58'0 0.1
2015-May-27 07:33N 69°39' E 018°58'1 1.2
2015-May-27 06:33N 69°41' E 018°59'3 2.4
2015-May-27 05:27N 69°43' E 019°01'0 0.1
2015-May-27 03:15N 69°43' E 019°01'0 0.1
2015-May-27 02:26N 69°43' E 019°02'0 0.1
2015-May-27 01:32N 69°43' E 019°02'0 0.1
2015-May-27 00:33N 69°43' E 019°02'1 1.1
2015-May-26 23:33N 69°42' E 019°03'2 2.5
2015-May-26 22:33N 69°40' E 018°59'1 0.8
2015-May-26 21:33N 69°41' E 019°01'  
2015-May-20 17:22N 69°46' E 019°09'7 8.1
2015-May-20 16:33N 69°40' E 019°00'0 0.5
2015-May-20 15:33N 69°41' E 018°59'0 0.0
2015-May-20 14:31N 69°41' E 018°59'0 0.0
2015-May-20 13:31N 69°41' E 018°59'2 1.9
2015-May-20 12:25N 69°42' E 019°03'0 0.0
2015-May-20 06:33N 69°43' E 019°03'2 2.3
2015-May-20 05:31N 69°41' E 018°59'0 0.0
2015-May-20 04:28N 69°41' E 018°59'0 0.0
2015-May-20 03:28N 69°41' E 018°59'0 0.0
2015-May-20 02:28N 69°41' E 018°59'0 0.0
2015-May-20 01:22N 69°41' E 018°59'0 0.0
2015-May-20 00:28N 69°41' E 018°59'0 0.0
2015-May-19 23:31N 69°41' E 018°59'0 0.0
2015-May-19 22:25N 69°41' E 018°59'0 0.0
2015-May-19 21:28N 69°41' E 018°59'0 0.0
2015-May-19 20:28N 69°41' E 018°59'0 0.0
2015-May-19 19:10N 69°41' E 018°59'0 0.0
2015-May-19 18:28N 69°41' E 018°59'0 0.0
2015-May-19 17:31N 69°41' E 018°59'0 0.0
2015-May-19 16:31N 69°41' E 018°59'0 0.0
2015-May-19 15:31N 69°41' E 018°59'0 0.0
2015-May-19 14:22N 69°41' E 018°59'0 0.0
2015-May-19 13:16N 69°41' E 018°59'0 0.0
2015-May-19 12:28N 69°41' E 018°59'0 0.0
2015-May-19 11:31N 69°41' E 018°59'0 0.0
2015-May-19 10:16N 69°41' E 018°59'0 0.0
2015-May-19 09:28N 69°41' E 018°59'0 0.0
2015-May-19 08:31N 69°41' E 018°59'0 0.0
2015-May-19 07:25N 69°41' E 018°59'0 0.0
2015-May-19 06:31N 69°41' E 018°59'0 0.0
2015-May-19 05:25N 69°41' E 018°59'2 2.4
2015-May-19 04:32N 69°42' E 019°02'  

Dump ship's entire track history